LDDU

Dubrovnik Airport

Dubrovnik, Croatia
TAF LDDU 252325Z 2600/2700 VRB02KT CAVOK TX22/2611Z TN12/2602Z
Issued Valid From Valid To
Apr-25 @ 23:25 UTC
(4 hours ago)
Apr-26 @ 00:00 UTC
(4 hours ago)
Apr-27 @ 00:00 UTC
(in 20 hours)
Apr-26 @ 00:00 to Apr-27 @ 00:00
TAF LDDU 252325Z 2600/2700 VRB02KT CAVOK TX22/2611Z TN12/2602Z
Wind Visibility Clouds
Variable at 2 knots 10,000+ meters
  • No significant clouds
TAF LDDU 252325Z 2600/2700 VRB02KT CAVOK TX22/2611Z TN12/2602Z
Issued Apr-25 @ 23:25 UTC
(4 hours ago)
Valid From Apr-26 @ 00:00 UTC
(4 hours ago)
Valid To Apr-27 @ 00:00 UTC
(in 20 hours)
Apr-26 @ 00:00 - Apr-27 @ 00:00
Wind Visibility
Variable at 2 knots 10,000+ meters
Clouds
  • No significant clouds